Time;durP1;ratioP1;P1;durP2;ratioP2;P2;SDS_P1;SDS_P2;PMS_P1;PMS_P2;Temp;Humidity;BMP_temperature;BMP_pressure;BME280_temperature;BME280_humidity;BME280_pressure;Samples;Min_cycle;Max_cycle;Signal;HPM_P1;HPM_P2
2023/06/29 00:00:58;;;;;;;;;;;;;;;;;;5083084;28;19924;-70
2023/06/29 00:03:25;;;;;;;;;;;;;;;;;;5086692;28;19958;-70
2023/06/29 00:05:55;;;;;;;;;;;;;;;;;;5083151;28;20379;-70
2023/06/29 00:08:24;;;;;;;;;;;;;;;;;;5091401;28;20212;-70
2023/06/29 00:10:51;;;;;;;;;;;;;;;;;;5088390;28;19932;-69
2023/06/29 00:13:18;;;;;;;;;;;;;;;;;;5076565;28;19960;-69
2023/06/29 00:15:45;;;;;;;;;;;;;;;;;;5091739;28;19924;-69
2023/06/29 00:18:12;;;;;;;;;;;;;;;;;;5091280;28;20019;-69
2023/06/29 00:20:39;;;;;;;;;;;;;;;;;;5092090;28;19931;-70
2023/06/29 00:23:06;;;;;;;;;;;;;;;;;;5090598;28;20416;-69
2023/06/29 00:25:33;;;;;;;;;;;;;;;;;;5087086;28;19952;-70
2023/06/29 00:28:00;;;;;;;;;;;;;;;;;;5072373;28;20019;-69
2023/06/29 00:30:27;;;;;;;;;;;;;;;;;;5072538;28;20013;-70
2023/06/29 00:32:54;;;;;;;;;;;;;;;;;;5072492;28;19925;-69
2023/06/29 00:35:21;;;;;;;;;;;;;;;;;;5084893;28;19924;-67
2023/06/29 00:37:48;;;;;;;;;;;;;;;;;;5090643;28;20023;-70
2023/06/29 00:40:15;;;;;;;;;;;;;;;;;;5090870;28;19967;-70
2023/06/29 00:42:42;;;;;;;;;;;;;;;;;;5092524;28;20022;-68
2023/06/29 00:45:09;;;;;;;;;;;;;;;;;;5091378;28;20018;-68
2023/06/29 00:47:36;;;;;;;;;;;;;;;;;;5092000;28;19930;-68
2023/06/29 00:50:03;;;;;;;;;;;;;;;;;;5092390;28;20011;-68
2023/06/29 00:52:30;;;;;;;;;;;;;;;;;;5078505;28;19925;-68
2023/06/29 00:54:57;;;;;;;;;;;;;;;;;;5082795;28;20039;-68
2023/06/29 00:57:25;;;;;;;;;;;;;;;;;;5083461;28;19928;-68
2023/06/29 00:59:52;;;;;;;;;;;;;;;;;;5092336;28;20410;-67
2023/06/29 01:02:19;;;;;;;;;;;;;;;;;;5092113;28;19924;-68
2023/06/29 01:04:47;;;;;;;;;;;;;;;;;;5091044;28;20010;-68
2023/06/29 01:07:15;;;;;;;;;;;;;;;;;;5074051;28;19924;-69
2023/06/29 01:09:44;;;;;;;;;;;;;;;;;;5078113;28;19928;-68
2023/06/29 01:12:11;;;;;;;;;;;;;;;;;;5096058;28;19924;-68
2023/06/29 01:14:38;;;;;;;;;;;;;;;;;;5093059;28;19966;-68
2023/06/29 01:17:05;;;;;;;;;;;;;;;;;;5095739;28;20014;-69
2023/06/29 01:19:32;;;;;;;;;;;;;;;;;;5095691;28;19982;-68
2023/06/29 01:21:59;;;;;;;;;;;;;;;;;;5078536;28;19929;-68
2023/06/29 01:24:26;;;;;;;;;;;;;;;;;;5079127;28;19962;-68
2023/06/29 01:26:53;;;;;;;;;;;;;;;;;;5094253;28;19924;-68
2023/06/29 01:29:24;;;;;;;;;;;;;;;;;;5094859;28;19934;-68
2023/06/29 01:31:51;;;;;;;;;;;;;;;;;;5094686;28;19928;-68
2023/06/29 01:34:18;;;;;;;;;;;;;;;;;;5093359;28;19988;-68
2023/06/29 01:36:45;;;;;;;;;;;;;;;;;;5093470;28;20343;-69
2023/06/29 01:39:12;;;;;;;;;;;;;;;;;;5076986;28;20365;-68
2023/06/29 01:41:39;;;;;;;;;;;;;;;;;;5089653;28;20361;-68
2023/06/29 01:44:06;;;;;;;;;;;;;;;;;;5075973;28;19962;-68
2023/06/29 01:46:33;;;;;;;;;;;;;;;;;;5095469;28;19931;-68
2023/06/29 01:49:00;;;;;;;;;;;;;;;;;;5095262;28;20027;-68
2023/06/29 01:51:27;;;;;;;;;;;;;;;;;;5074246;28;19924;-68
2023/06/29 01:53:54;;;;;;;;;;;;;;;;;;5074453;28;20023;-68
2023/06/29 01:56:21;;;;;;;;;;;;;;;;;;5092200;28;19942;-68
2023/06/29 01:58:48;;;;;;;;;;;;;;;;;;5094771;28;20031;-68
2023/06/29 02:01:15;;;;;;;;;;;;;;;;;;5094941;28;19932;-68
2023/06/29 02:03:42;;;;;;;;;;;;;;;;;;5093335;28;20019;-68
2023/06/29 02:06:09;;;;;;;;;;;;;;;;;;5089023;28;20386;-68
2023/06/29 02:08:37;;;;;;;;;;;;;;;;;;5094360;28;20290;-68
2023/06/29 02:11:04;;;;;;;;;;;;;;;;;;5088360;28;19931;-69
2023/06/29 02:13:31;;;;;;;;;;;;;;;;;;5078910;28;19932;-67
2023/06/29 02:15:58;;;;;;;;;;;;;;;;;;5080564;28;19925;-68
2023/06/29 02:18:25;;;;;;;;;;;;;;;;;;5075388;28;19964;-67
2023/06/29 02:20:53;;;;;;;;;;;;;;;;;;5074460;28;20007;-68
2023/06/29 02:23:20;;;;;;;;;;;;;;;;;;5086404;28;19924;-68
2023/06/29 02:25:47;;;;;;;;;;;;;;;;;;5092723;28;20011;-68
2023/06/29 02:28:14;;;;;;;;;;;;;;;;;;5093443;28;19924;-68
2023/06/29 02:30:41;;;;;;;;;;;;;;;;;;5073994;28;20106;-68
2023/06/29 02:33:08;;;;;;;;;;;;;;;;;;5073528;28;20027;-68
2023/06/29 02:35:35;;;;;;;;;;;;;;;;;;5089384;28;19924;-68
2023/06/29 02:38:02;;;;;;;;;;;;;;;;;;5094264;28;20024;-68
2023/06/29 02:40:29;;;;;;;;;;;;;;;;;;5092463;28;20011;-68
2023/06/29 02:42:56;;;;;;;;;;;;;;;;;;5093658;28;20023;-68
2023/06/29 02:45:23;;;;;;;;;;;;;;;;;;5080389;28;20023;-68
2023/06/29 02:47:50;;;;;;;;;;;;;;;;;;5073643;28;19944;-68
2023/06/29 02:50:17;;;;;;;;;;;;;;;;;;5073409;28;20039;-68
2023/06/29 02:52:44;;;;;;;;;;;;;;;;;;5073058;28;19925;-68
2023/06/29 02:55:11;;;;;;;;;;;;;;;;;;5084044;28;19924;-68
2023/06/29 02:57:38;;;;;;;;;;;;;;;;;;5093175;28;19924;-68
2023/06/29 03:00:05;;;;;;;;;;;;;;;;;;5092652;28;20399;-68
2023/06/29 03:02:32;;;;;;;;;;;;;;;;;;5092081;28;19931;-67
2023/06/29 03:04:58;;;;;;;;;;;;;;;;;;5093081;28;19959;-68
2023/06/29 03:07:25;;;;;;;;;;;;;;;;;;5092880;28;20003;-68
2023/06/29 03:09:52;;;;;;;;;;;;;;;;;;5092634;28;19924;-68
2023/06/29 03:12:19;;;;;;;;;;;;;;;;;;5088680;28;20018;-68
2023/06/29 03:14:46;;;;;;;;;;;;;;;;;;5091759;28;19979;-68
2023/06/29 03:17:14;;;;;;;;;;;;;;;;;;5093635;28;20018;-68
2023/06/29 03:19:41;;;;;;;;;;;;;;;;;;5091297;28;19931;-67
2023/06/29 03:22:08;;;;;;;;;;;;;;;;;;5073310;28;20024;-68
2023/06/29 03:24:35;;;;;;;;;;;;;;;;;;5078333;28;19924;-68
2023/06/29 03:27:02;;;;;;;;;;;;;;;;;;5093004;28;19975;-68
2023/06/29 03:29:29;;;;;;;;;;;;;;;;;;5093563;28;19924;-68
2023/06/29 03:31:56;;;;;;;;;;;;;;;;;;5084984;28;19968;-69
2023/06/29 03:34:23;;;;;;;;;;;;;;;;;;5091493;28;19924;-69
2023/06/29 03:36:50;;;;;;;;;;;;;;;;;;5092774;28;19935;-69
2023/06/29 03:39:17;;;;;;;;;;;;;;;;;;5092074;28;19925;-69
2023/06/29 03:41:44;;;;;;;;;;;;;;;;;;5079706;28;19924;-68
2023/06/29 03:44:11;;;;;;;;;;;;;;;;;;5086948;28;20006;-69
2023/06/29 03:46:38;;;;;;;;;;;;;;;;;;5091956;28;19982;-69
2023/06/29 03:49:05;;;;;;;;;;;;;;;;;;5089883;28;19924;-69
2023/06/29 03:51:32;;;;;;;;;;;;;;;;;;5081716;28;19924;-69
2023/06/29 03:53:59;;;;;;;;;;;;;;;;;;5090610;28;19971;-69
2023/06/29 03:56:26;;;;;;;;;;;;;;;;;;5092608;28;19986;-69
2023/06/29 03:58:53;;;;;;;;;;;;;;;;;;5092639;28;20436;-69
2023/06/29 04:01:20;;;;;;;;;;;;;;;;;;5091414;28;20361;-69
2023/06/29 04:03:47;;;;;;;;;;;;;;;;;;5092222;28;20268;-68
2023/06/29 04:06:14;;;;;;;;;;;;;;;;;;5092508;28;19924;-69
2023/06/29 04:08:41;;;;;;;;;;;;;;;;;;5091586;28;20416;-69
2023/06/29 04:11:09;;;;;;;;;;;;;;;;;;5073768;28;19978;-69
2023/06/29 04:13:36;;;;;;;;;;;;;;;;;;5071777;28;20319;-69
2023/06/29 04:16:03;;;;;;;;;;;;;;;;;;5072612;28;20066;-70
2023/06/29 04:18:30;;;;;;;;;;;;;;;;;;5076422;28;20042;-70
2023/06/29 04:20:57;;;;;;;;;;;;;;;;;;5086851;28;19924;-70
2023/06/29 04:23:24;;;;;;;;;;;;;;;;;;5091021;28;19925;-70
2023/06/29 04:25:51;;;;;;;;;;;;;;;;;;5088513;28;20137;-70
2023/06/29 04:28:18;;;;;;;;;;;;;;;;;;5090551;28;19931;-71
2023/06/29 04:30:45;;;;;;;;;;;;;;;;;;5091390;28;20276;-71
2023/06/29 04:33:14;;;;;;;;;;;;;;;;;;5092624;28;19931;-70
2023/06/29 04:35:41;;;;;;;;;;;;;;;;;;5092535;28;19924;-71
2023/06/29 04:38:09;;;;;;;;;;;;;;;;;;5091121;28;19967;-71
2023/06/29 04:40:36;;;;;;;;;;;;;;;;;;5080058;28;19931;-70
2023/06/29 04:43:03;;;;;;;;;;;;;;;;;;5080425;28;20540;-70
2023/06/29 04:45:31;;;;;;;;;;;;;;;;;;5083241;28;20020;-71
2023/06/29 04:47:58;;;;;;;;;;;;;;;;;;5076410;28;19931;-70
2023/06/29 04:50:25;;;;;;;;;;;;;;;;;;5087255;28;19928;-71
2023/06/29 04:52:52;;;;;;;;;;;;;;;;;;5090991;28;19932;-71
2023/06/29 04:55:19;;;;;;;;;;;;;;;;;;5090301;28;19932;-70
2023/06/29 04:57:46;;;;;;;;;;;;;;;;;;5093906;28;19996;-70
2023/06/29 05:00:14;;;;;;;;;;;;;;;;;;5095926;28;20022;-70
2023/06/29 05:02:41;;;;;;;;;;;;;;;;;;5094922;28;19928;-70
2023/06/29 05:05:08;;;;;;;;;;;;;;;;;;5096116;28;20010;-70
2023/06/29 05:07:35;;;;;;;;;;;;;;;;;;5095691;28;20398;-70
2023/06/29 05:10:02;;;;;;;;;;;;;;;;;;5094689;28;19967;-71
2023/06/29 05:12:29;;;;;;;;;;;;;;;;;;5083827;28;19979;-70
2023/06/29 05:14:56;;;;;;;;;;;;;;;;;;5094784;28;20387;-71
2023/06/29 05:17:23;;;;;;;;;;;;;;;;;;5095338;28;20351;-71
2023/06/29 05:19:50;;;;;;;;;;;;;;;;;;5083987;28;19924;-71
2023/06/29 05:22:17;;;;;;;;;;;;;;;;;;5087247;28;19971;-71
2023/06/29 05:24:44;;;;;;;;;;;;;;;;;;5074799;28;20095;-72
2023/06/29 05:27:11;;;;;;;;;;;;;;;;;;5074097;28;20374;-71
2023/06/29 05:29:38;;;;;;;;;;;;;;;;;;5081159;28;20367;-71
2023/06/29 05:32:05;;;;;;;;;;;;;;;;;;5095178;28;19924;-71
2023/06/29 05:34:32;;;;;;;;;;;;;;;;;;5095452;28;19924;-72
2023/06/29 05:36:59;;;;;;;;;;;;;;;;;;5093971;28;20050;-72
2023/06/29 05:39:27;;;;;;;;;;;;;;;;;;5094527;28;19985;-69
2023/06/29 05:41:54;;;;;;;;;;;;;;;;;;5093756;28;19977;-70
2023/06/29 05:44:21;;;;;;;;;;;;;;;;;;5095704;28;20022;-70
2023/06/29 05:46:48;;;;;;;;;;;;;;;;;;5094081;28;20020;-71
2023/06/29 05:49:15;;;;;;;;;;;;;;;;;;5095484;28;19978;-70
2023/06/29 05:51:42;;;;;;;;;;;;;;;;;;5093282;28;19981;-71
2023/06/29 05:54:09;;;;;;;;;;;;;;;;;;5092693;28;19936;-70
2023/06/29 05:56:36;;;;;;;;;;;;;;;;;;5093408;28;20308;-71
2023/06/29 05:59:03;;;;;;;;;;;;;;;;;;5095016;28;20014;-71
2023/06/29 06:01:30;;;;;;;;;;;;;;;;;;5094150;28;20386;-70
2023/06/29 06:03:57;;;;;;;;;;;;;;;;;;5082135;28;20362;-71
2023/06/29 06:06:24;;;;;;;;;;;;;;;;;;5092439;28;19927;-69
2023/06/29 06:08:51;;;;;;;;;;;;;;;;;;5094356;28;20030;-69
2023/06/29 06:11:18;;;;;;;;;;;;;;;;;;5093339;28;19959;-70
2023/06/29 06:13:45;;;;;;;;;;;;;;;;;;5094171;28;20267;-69
2023/06/29 06:16:12;;;;;;;;;;;;;;;;;;5093313;28;19966;-69
2023/06/29 06:18:39;;;;;;;;;;;;;;;;;;5093324;28;19964;-69
2023/06/29 06:21:06;;;;;;;;;;;;;;;;;;5093090;28;20026;-68
2023/06/29 06:23:33;;;;;;;;;;;;;;;;;;5093551;28;20317;-68
2023/06/29 06:26:00;;;;;;;;;;;;;;;;;;5092270;28;19928;-69
2023/06/29 06:28:27;;;;;;;;;;;;;;;;;;5093905;28;20348;-70
2023/06/29 06:30:54;;;;;;;;;;;;;;;;;;5093718;28;19925;-69
2023/06/29 06:33:21;;;;;;;;;;;;;;;;;;5093442;28;19924;-69
2023/06/29 06:35:49;;;;;;;;;;;;;;;;;;5091939;28;20038;-69
2023/06/29 06:38:16;;;;;;;;;;;;;;;;;;5091408;28;19978;-70
2023/06/29 06:40:43;;;;;;;;;;;;;;;;;;5092757;28;19981;-69
2023/06/29 06:43:10;;;;;;;;;;;;;;;;;;5093631;28;19969;-70
2023/06/29 06:45:37;;;;;;;;;;;;;;;;;;5091918;28;20357;-70
2023/06/29 06:48:04;;;;;;;;;;;;;;;;;;5093537;28;20268;-70
2023/06/29 06:50:31;;;;;;;;;;;;;;;;;;5091046;28;19924;-70
2023/06/29 06:52:58;;;;;;;;;;;;;;;;;;5089664;28;20421;-71
2023/06/29 06:55:25;;;;;;;;;;;;;;;;;;5086457;28;20452;-70
2023/06/29 06:57:52;;;;;;;;;;;;;;;;;;5078896;28;19928;-70
2023/06/29 07:00:19;;;;;;;;;;;;;;;;;;5076895;28;20015;-70
2023/06/29 07:02:46;;;;;;;;;;;;;;;;;;5073599;28;19925;-70
2023/06/29 07:05:17;;;;;;;;;;;;;;;;;;5073718;28;20015;-71
2023/06/29 07:07:46;;;;;;;;;;;;;;;;;;5092160;28;19931;-71
2023/06/29 07:10:12;;;;;;;;;;;;;;;;;;5076652;28;20069;-71
2023/06/29 07:12:40;;;;;;;;;;;;;;;;;;5088012;28;20003;-71
2023/06/29 07:15:07;;;;;;;;;;;;;;;;;;5093070;28;19970;-71
2023/06/29 07:17:34;;;;;;;;;;;;;;;;;;5092025;28;20021;-70
2023/06/29 07:20:00;;;;;;;;;;;;;;;;;;5091626;28;19956;-69
2023/06/29 07:22:27;;;;;;;;;;;;;;;;;;5073156;28;20015;-70
2023/06/29 07:24:56;;;;;;;;;;;;;;;;;;5085366;28;20015;-73
2023/06/29 07:27:23;;;;;;;;;;;;;;;;;;5092843;28;20035;-70
2023/06/29 07:29:50;;;;;;;;;;;;;;;;;;5077593;28;20031;-71
2023/06/29 07:32:17;;;;;;;;;;;;;;;;;;5081628;28;20038;-71
2023/06/29 07:34:44;;;;;;;;;;;;;;;;;;5092977;28;19935;-71
2023/06/29 07:37:11;;;;;;;;;;;;;;;;;;5088856;28;19963;-71
2023/06/29 07:39:38;;;;;;;;;;;;;;;;;;5079300;28;19947;-71
2023/06/29 07:42:05;;;;;;;;;;;;;;;;;;5075953;28;19925;-71
2023/06/29 07:44:32;;;;;;;;;;;;;;;;;;5073890;28;19924;-69
2023/06/29 07:46:59;;;;;;;;;;;;;;;;;;5087632;28;19924;-69
2023/06/29 07:49:26;;;;;;;;;;;;;;;;;;5087559;28;19931;-69
2023/06/29 07:51:53;;;;;;;;;;;;;;;;;;5091249;28;20014;-69
2023/06/29 07:54:20;;;;;;;;;;;;;;;;;;5091000;28;19928;-69
2023/06/29 07:56:47;;;;;;;;;;;;;;;;;;5092542;28;20027;-70
2023/06/29 07:59:14;;;;;;;;;;;;;;;;;;5092152;28;19931;-70
2023/06/29 08:01:41;;;;;;;;;;;;;;;;;;5075310;28;19972;-69
2023/06/29 08:04:08;;;;;;;;;;;;;;;;;;5091358;28;20375;-70
2023/06/29 08:06:41;;;;;;;;;;;;;;;;;;5075752;28;20693;-69
2023/06/29 08:09:08;;;;;;;;;;;;;;;;;;5072757;28;19978;-69
2023/06/29 08:11:35;;;;;;;;;;;;;;;;;;5072481;28;19970;-70
2023/06/29 08:14:02;;;;;;;;;;;;;;;;;;5084416;28;19924;-70
2023/06/29 08:16:29;;;;;;;;;;;;;;;;;;5092306;28;20374;-69
2023/06/29 08:18:56;;;;;;;;;;;;;;;;;;5087690;28;19972;-70
2023/06/29 08:21:23;;;;;;;;;;;;;;;;;;5090839;28;19972;-69
2023/06/29 08:23:50;;;;;;;;;;;;;;;;;;5089316;28;20011;-71
2023/06/29 08:26:17;;;;;;;;;;;;;;;;;;5088937;28;19924;-71
2023/06/29 08:28:44;;;;;;;;;;;;;;;;;;5075993;28;20003;-71
2023/06/29 08:31:12;;;;;;;;;;;;;;;;;;5079501;28;20015;-71
2023/06/29 08:33:39;;;;;;;;;;;;;;;;;;5091888;28;20405;-72
2023/06/29 08:36:06;;;;;;;;;;;;;;;;;;5084877;28;20339;-71
2023/06/29 08:38:33;;;;;;;;;;;;;;;;;;5090701;28;20035;-72
2023/06/29 08:41:00;;;;;;;;;;;;;;;;;;5080812;28;20004;-70
2023/06/29 08:43:27;;;;;;;;;;;;;;;;;;5086631;28;19971;-70
2023/06/29 08:45:54;;;;;;;;;;;;;;;;;;5091599;28;20023;-71
2023/06/29 08:48:21;;;;;;;;;;;;;;;;;;5091316;28;20003;-70
2023/06/29 08:50:48;;;;;;;;;;;;;;;;;;5091058;28;19971;-70
2023/06/29 08:53:15;;;;;;;;;;;;;;;;;;5090831;28;20375;-70
2023/06/29 08:55:42;;;;;;;;;;;;;;;;;;5091069;28;20043;-71
2023/06/29 08:58:09;;;;;;;;;;;;;;;;;;5091515;28;20006;-71
2023/06/29 09:00:37;;;;;;;;;;;;;;;;;;5091550;28;20018;-70
2023/06/29 09:03:04;;;;;;;;;;;;;;;;;;5091659;28;19929;-71
2023/06/29 09:05:31;;;;;;;;;;;;;;;;;;5091094;28;20040;-70
2023/06/29 09:07:58;;;;;;;;;;;;;;;;;;5079586;28;19971;-70
2023/06/29 09:10:25;;;;;;;;;;;;;;;;;;5091440;28;19931;-70
2023/06/29 09:12:53;;;;;;;;;;;;;;;;;;5077153;28;19978;-70
2023/06/29 09:15:20;;;;;;;;;;;;;;;;;;5081080;28;20025;-70
2023/06/29 09:17:47;;;;;;;;;;;;;;;;;;5090273;28;19998;-72
2023/06/29 09:20:15;;;;;;;;;;;;;;;;;;5083835;28;19924;-70
2023/06/29 09:22:42;;;;;;;;;;;;;;;;;;5088145;28;19931;-70
2023/06/29 09:25:10;;;;;;;;;;;;;;;;;;5091256;28;20553;-71
2023/06/29 09:27:37;;;;;;;;;;;;;;;;;;5090208;28;19925;-71
2023/06/29 09:30:04;;;;;;;;;;;;;;;;;;5091502;28;20012;-71
2023/06/29 09:32:31;;;;;;;;;;;;;;;;;;5094495;28;19946;-70
2023/06/29 09:34:58;;;;;;;;;;;;;;;;;;5093695;28;19955;-71
2023/06/29 09:37:25;;;;;;;;;;;;;;;;;;5095619;28;20019;-70
2023/06/29 09:39:53;;;;;;;;;;;;;;;;;;5088642;28;20383;-71
2023/06/29 09:42:20;;;;;;;;;;;;;;;;;;5087538;28;20036;-71
2023/06/29 09:44:47;;;;;;;;;;;;;;;;;;5083112;28;19930;-71
2023/06/29 09:47:14;;;;;;;;;;;;;;;;;;5093681;28;20159;-71
2023/06/29 09:49:40;;;;;;;;;;;;;;;;;;5092836;28;19928;-70
2023/06/29 09:52:09;;;;;;;;;;;;;;;;;;5090798;28;19977;-70
2023/06/29 09:54:36;;;;;;;;;;;;;;;;;;5078944;28;20306;-72
2023/06/29 09:57:03;;;;;;;;;;;;;;;;;;5094165;28;19977;-71
2023/06/29 09:59:30;;;;;;;;;;;;;;;;;;5091994;28;20007;-71
2023/06/29 10:01:57;;;;;;;;;;;;;;;;;;5093718;28;19924;-71
2023/06/29 10:04:24;;;;;;;;;;;;;;;;;;5089032;28;19932;-71
2023/06/29 10:06:51;;;;;;;;;;;;;;;;;;5089499;28;20479;-71
2023/06/29 10:09:19;;;;;;;;;;;;;;;;;;5073817;28;20081;-71
2023/06/29 10:11:46;;;;;;;;;;;;;;;;;;5083550;28;19924;-71
2023/06/29 10:14:14;;;;;;;;;;;;;;;;;;5093286;28;20027;-71
2023/06/29 10:16:41;;;;;;;;;;;;;;;;;;5092811;28;19924;-71
2023/06/29 10:19:08;;;;;;;;;;;;;;;;;;5091576;28;19924;-71
2023/06/29 10:21:35;;;;;;;;;;;;;;;;;;5073039;28;20023;-71
2023/06/29 10:24:02;;;;;;;;;;;;;;;;;;5073245;28;19924;-72
2023/06/29 10:26:29;;;;;;;;;;;;;;;;;;5073521;28;19980;-71
2023/06/29 10:28:57;;;;;;;;;;;;;;;;;;5094041;28;19924;-71
2023/06/29 10:31:24;;;;;;;;;;;;;;;;;;5094228;28;20316;-80
2023/06/29 10:33:51;;;;;;;;;;;;;;;;;;5093576;28;20071;-70
2023/06/29 10:36:18;;;;;;;;;;;;;;;;;;5092844;28;19931;-72
2023/06/29 10:38:45;;;;;;;;;;;;;;;;;;5085769;28;20026;-71
2023/06/29 10:41:12;;;;;;;;;;;;;;;;;;5072779;28;19979;-71
2023/06/29 10:43:39;;;;;;;;;;;;;;;;;;5076795;28;20015;-70
2023/06/29 10:46:06;;;;;;;;;;;;;;;;;;5077756;28;19931;-70
2023/06/29 10:48:33;;;;;;;;;;;;;;;;;;5072909;28;19925;-71
2023/06/29 10:51:00;;;;;;;;;;;;;;;;;;5077393;28;19924;-70
2023/06/29 10:53:27;;;;;;;;;;;;;;;;;;5087409;28;19930;-71
2023/06/29 10:55:55;;;;;;;;;;;;;;;;;;5075477;28;20363;-72
2023/06/29 10:58:23;;;;;;;;;;;;;;;;;;5080541;28;19986;-72
2023/06/29 11:00:51;;;;;;;;;;;;;;;;;;5072759;28;19929;-71
2023/06/29 11:03:18;;;;;;;;;;;;;;;;;;5084426;28;19925;-71
2023/06/29 11:05:45;;;;;;;;;;;;;;;;;;5081563;28;20387;-71
2023/06/29 11:08:12;;;;;;;;;;;;;;;;;;5081303;28;20378;-71
2023/06/29 11:10:39;;;;;;;;;;;;;;;;;;5079520;28;19925;-72
2023/06/29 11:13:06;;;;;;;;;;;;;;;;;;5074367;28;19930;-69
2023/06/29 11:15:33;;;;;;;;;;;;;;;;;;5073658;28;19939;-70
2023/06/29 11:18:04;;;;;;;;;;;;;;;;;;5073462;28;20386;-69
2023/06/29 11:20:31;;;;;;;;;;;;;;;;;;5074061;28;19929;-70
2023/06/29 11:22:59;;;;;;;;;;;;;;;;;;5072337;28;19948;-70
2023/06/29 11:25:26;;;;;;;;;;;;;;;;;;5076632;28;19932;-69
2023/06/29 11:27:53;;;;;;;;;;;;;;;;;;5077304;28;19931;-71
2023/06/29 11:30:20;;;;;;;;;;;;;;;;;;5072363;28;19947;-71
2023/06/29 11:32:47;;;;;;;;;;;;;;;;;;5072293;28;19979;-71
2023/06/29 11:35:14;;;;;;;;;;;;;;;;;;5080178;28;19928;-71
2023/06/29 11:37:41;;;;;;;;;;;;;;;;;;5073127;28;19964;-72
2023/06/29 11:40:08;;;;;;;;;;;;;;;;;;5076877;28;19924;-71
2023/06/29 11:42:36;;;;;;;;;;;;;;;;;;5076178;28;19935;-71
2023/06/29 11:45:04;;;;;;;;;;;;;;;;;;5091061;28;19983;-71
2023/06/29 11:47:31;;;;;;;;;;;;;;;;;;5076127;28;20018;-71
2023/06/29 11:49:59;;;;;;;;;;;;;;;;;;5075665;28;19924;-73
2023/06/29 11:52:26;;;;;;;;;;;;;;;;;;5083351;28;20350;-72
2023/06/29 11:54:53;;;;;;;;;;;;;;;;;;5082256;28;20021;-72
2023/06/29 11:57:20;;;;;;;;;;;;;;;;;;5083117;28;20015;-72
2023/06/29 11:59:47;;;;;;;;;;;;;;;;;;5077089;28;20267;-71
2023/06/29 12:02:14;;;;;;;;;;;;;;;;;;5081939;28;19924;-72
2023/06/29 12:04:41;;;;;;;;;;;;;;;;;;5077850;28;19935;-72
2023/06/29 12:07:08;;;;;;;;;;;;;;;;;;5073889;28;19924;-73
2023/06/29 12:09:36;;;;;;;;;;;;;;;;;;5084804;28;20011;-72
2023/06/29 12:12:03;;;;;;;;;;;;;;;;;;5089532;28;19931;-72
2023/06/29 12:14:30;;;;;;;;;;;;;;;;;;5071875;28;20007;-72
2023/06/29 12:17:00;;;;;;;;;;;;;;;;;;5079431;28;19924;-72
2023/06/29 12:19:27;;;;;;;;;;;;;;;;;;5073188;28;19925;-72
2023/06/29 12:21:57;;;;;;;;;;;;;;;;;;5081488;28;19924;-72
2023/06/29 12:24:24;;;;;;;;;;;;;;;;;;5092674;28;19924;-72
2023/06/29 12:26:51;;;;;;;;;;;;;;;;;;5091411;28;19935;-71
2023/06/29 12:29:18;;;;;;;;;;;;;;;;;;5085757;28;20072;-70
2023/06/29 12:31:45;;;;;;;;;;;;;;;;;;5087859;28;19931;-72
2023/06/29 12:34:12;;;;;;;;;;;;;;;;;;5090727;28;19928;-74
2023/06/29 12:36:45;;;;;;;;;;;;;;;;;;5090936;28;20011;-73
2023/06/29 12:39:12;;;;;;;;;;;;;;;;;;5082688;28;19924;-73
2023/06/29 12:41:39;;;;;;;;;;;;;;;;;;5080247;28;19924;-73
2023/06/29 12:44:06;;;;;;;;;;;;;;;;;;5074010;28;19976;-74
2023/06/29 12:46:33;;;;;;;;;;;;;;;;;;5084261;28;20595;-74
2023/06/29 12:49:00;;;;;;;;;;;;;;;;;;5076224;28;20049;-74
2023/06/29 12:51:27;;;;;;;;;;;;;;;;;;5084080;28;20077;-73
2023/06/29 12:53:54;;;;;;;;;;;;;;;;;;5090034;28;20023;-73
2023/06/29 12:56:21;;;;;;;;;;;;;;;;;;5071744;28;20468;-73
2023/06/29 12:58:48;;;;;;;;;;;;;;;;;;5084250;28;20014;-71
2023/06/29 13:01:15;;;;;;;;;;;;;;;;;;5091421;28;20019;-70
2023/06/29 13:03:42;;;;;;;;;;;;;;;;;;5091818;28;19924;-72
2023/06/29 13:06:09;;;;;;;;;;;;;;;;;;5082640;28;19967;-73
2023/06/29 13:08:36;;;;;;;;;;;;;;;;;;5093905;28;20450;-73
2023/06/29 13:11:04;;;;;;;;;;;;;;;;;;5095063;28;19978;-72
2023/06/29 13:13:31;;;;;;;;;;;;;;;;;;5095241;28;19931;-72
2023/06/29 13:15:58;;;;;;;;;;;;;;;;;;5093124;28;20015;-72
2023/06/29 13:18:25;;;;;;;;;;;;;;;;;;5094557;28;19931;-71
2023/06/29 13:20:52;;;;;;;;;;;;;;;;;;5094731;28;20005;-72
2023/06/29 13:23:19;;;;;;;;;;;;;;;;;;5095015;28;20014;-72
2023/06/29 13:25:46;;;;;;;;;;;;;;;;;;5087653;28;19963;-73
2023/06/29 13:28:13;;;;;;;;;;;;;;;;;;5094241;28;20432;-72
2023/06/29 13:30:41;;;;;;;;;;;;;;;;;;5094503;28;19924;-72
2023/06/29 13:33:08;;;;;;;;;;;;;;;;;;5092602;28;19939;-73
2023/06/29 13:35:35;;;;;;;;;;;;;;;;;;5089373;28;20354;-73
2023/06/29 13:38:02;;;;;;;;;;;;;;;;;;5095302;28;19924;-73
2023/06/29 13:40:29;;;;;;;;;;;;;;;;;;5095141;28;20019;-73
2023/06/29 13:42:56;;;;;;;;;;;;;;;;;;5092190;28;19961;-73
2023/06/29 13:45:24;;;;;;;;;;;;;;;;;;5075666;28;19968;-71
2023/06/29 13:47:50;;;;;;;;;;;;;;;;;;5091666;28;19924;-71
2023/06/29 13:50:17;;;;;;;;;;;;;;;;;;5093723;28;20007;-70
2023/06/29 13:52:44;;;;;;;;;;;;;;;;;;5094718;28;20014;-71
2023/06/29 13:55:11;;;;;;;;;;;;;;;;;;5094639;28;20291;-71
2023/06/29 13:57:38;;;;;;;;;;;;;;;;;;5093269;28;20026;-71
2023/06/29 14:00:05;;;;;;;;;;;;;;;;;;5094270;28;20024;-70
2023/06/29 14:02:32;;;;;;;;;;;;;;;;;;5094975;28;20035;-71
2023/06/29 14:04:59;;;;;;;;;;;;;;;;;;5094330;28;20034;-72
2023/06/29 14:07:26;;;;;;;;;;;;;;;;;;5073996;28;20015;-72
2023/06/29 14:09:53;;;;;;;;;;;;;;;;;;5079393;28;20020;-71
2023/06/29 14:12:20;;;;;;;;;;;;;;;;;;5094275;28;19931;-71
2023/06/29 14:14:48;;;;;;;;;;;;;;;;;;5090950;28;20094;-71
2023/06/29 14:17:18;;;;;;;;;;;;;;;;;;5093206;28;19924;-71
2023/06/29 14:19:46;;;;;;;;;;;;;;;;;;5091053;28;20478;-71
2023/06/29 14:22:13;;;;;;;;;;;;;;;;;;5074519;28;20399;-71
2023/06/29 14:24:40;;;;;;;;;;;;;;;;;;5085238;28;20362;-71
2023/06/29 14:27:07;;;;;;;;;;;;;;;;;;5091588;28;19924;-71
2023/06/29 14:29:34;;;;;;;;;;;;;;;;;;5080030;28;19978;-71
2023/06/29 14:32:01;;;;;;;;;;;;;;;;;;5094014;28;20019;-71
2023/06/29 14:34:28;;;;;;;;;;;;;;;;;;5089790;28;19971;-73
2023/06/29 14:36:55;;;;;;;;;;;;;;;;;;5075554;28;20454;-71
2023/06/29 14:39:22;;;;;;;;;;;;;;;;;;5081331;28;19925;-71
2023/06/29 14:41:49;;;;;;;;;;;;;;;;;;5093042;28;19954;-71
2023/06/29 14:44:16;;;;;;;;;;;;;;;;;;5093785;28;20015;-71
2023/06/29 14:46:43;;;;;;;;;;;;;;;;;;5094127;28;19974;-71
2023/06/29 14:49:12;;;;;;;;;;;;;;;;;;5093453;28;19931;-71
2023/06/29 14:51:39;;;;;;;;;;;;;;;;;;5087666;28;19924;-71
2023/06/29 14:54:06;;;;;;;;;;;;;;;;;;5073273;28;20346;-71
2023/06/29 14:56:34;;;;;;;;;;;;;;;;;;5079370;28;19990;-71
2023/06/29 14:59:02;;;;;;;;;;;;;;;;;;5083182;28;19924;-70
2023/06/29 15:01:29;;;;;;;;;;;;;;;;;;5092036;28;19935;-71
2023/06/29 15:03:56;;;;;;;;;;;;;;;;;;5089137;28;19928;-71
2023/06/29 15:06:23;;;;;;;;;;;;;;;;;;5092848;28;19968;-71
2023/06/29 15:08:50;;;;;;;;;;;;;;;;;;5090426;28;19924;-71
2023/06/29 15:11:17;;;;;;;;;;;;;;;;;;5089655;28;19981;-71
2023/06/29 15:13:45;;;;;;;;;;;;;;;;;;5090450;28;19924;-70
2023/06/29 15:16:12;;;;;;;;;;;;;;;;;;5091972;28;20309;-71
2023/06/29 15:18:39;;;;;;;;;;;;;;;;;;5093226;28;19969;-71
2023/06/29 15:21:06;;;;;;;;;;;;;;;;;;5075618;28;20014;-71
2023/06/29 15:23:33;;;;;;;;;;;;;;;;;;5085126;28;20038;-71
2023/06/29 15:26:00;;;;;;;;;;;;;;;;;;5092091;28;19928;-71
2023/06/29 15:28:27;;;;;;;;;;;;;;;;;;5089099;28;19935;-71
2023/06/29 15:30:54;;;;;;;;;;;;;;;;;;5082805;28;19979;-70
2023/06/29 15:33:21;;;;;;;;;;;;;;;;;;5075204;28;20032;-70
2023/06/29 15:35:48;;;;;;;;;;;;;;;;;;5074098;28;19948;-70
2023/06/29 15:38:15;;;;;;;;;;;;;;;;;;5076026;28;20324;-71
2023/06/29 15:40:42;;;;;;;;;;;;;;;;;;5074912;28;20022;-70
2023/06/29 15:43:09;;;;;;;;;;;;;;;;;;5078159;28;20375;-70
2023/06/29 15:45:36;;;;;;;;;;;;;;;;;;5077339;28;19931;-70
2023/06/29 15:48:03;;;;;;;;;;;;;;;;;;5072661;28;20019;-70
2023/06/29 15:50:30;;;;;;;;;;;;;;;;;;5073262;28;20019;-71
2023/06/29 15:52:57;;;;;;;;;;;;;;;;;;5075673;28;20427;-70
2023/06/29 15:55:24;;;;;;;;;;;;;;;;;;5081610;28;19964;-70
2023/06/29 15:57:51;;;;;;;;;;;;;;;;;;5085481;28;19970;-70
2023/06/29 16:00:18;;;;;;;;;;;;;;;;;;5084127;28;19939;-70
2023/06/29 16:02:45;;;;;;;;;;;;;;;;;;5091268;28;20007;-71
2023/06/29 16:05:12;;;;;;;;;;;;;;;;;;5090286;28;19986;-70
2023/06/29 16:07:39;;;;;;;;;;;;;;;;;;5091545;28;19924;-70
2023/06/29 16:10:07;;;;;;;;;;;;;;;;;;5092238;28;19924;-71
2023/06/29 16:12:34;;;;;;;;;;;;;;;;;;5083032;28;20039;-71
2023/06/29 16:15:01;;;;;;;;;;;;;;;;;;5085769;28;20007;-71
2023/06/29 16:17:28;;;;;;;;;;;;;;;;;;5092273;28;20031;-71
2023/06/29 16:19:55;;;;;;;;;;;;;;;;;;5090755;28;19931;-71
2023/06/29 16:22:22;;;;;;;;;;;;;;;;;;5091743;28;19951;-71
2023/06/29 16:24:49;;;;;;;;;;;;;;;;;;5092254;28;20022;-71
2023/06/29 16:27:16;;;;;;;;;;;;;;;;;;5092265;28;19966;-71
2023/06/29 16:29:43;;;;;;;;;;;;;;;;;;5092178;28;20003;-71
2023/06/29 16:32:10;;;;;;;;;;;;;;;;;;5091713;28;20014;-71
2023/06/29 16:34:37;;;;;;;;;;;;;;;;;;5089317;28;19932;-70
2023/06/29 16:37:04;;;;;;;;;;;;;;;;;;5091390;28;19924;-71
2023/06/29 16:39:31;;;;;;;;;;;;;;;;;;5091071;28;20015;-71
2023/06/29 16:41:58;;;;;;;;;;;;;;;;;;5095639;28;20022;-71
2023/06/29 16:44:25;;;;;;;;;;;;;;;;;;5094619;28;20023;-70